ADDS METAR Data INFO
IDs: Format: Raw Decoded Include TAF

Data at: 0112 UTC 24 Jun 2018

KJTC 240055Z AUTO 27015G22KT 10SM CLR 30/M09 A3010 RMK AO2
KJTC 240035Z AUTO 26015G24KT 10SM CLR 30/M09 A3010 RMK AO2
KJTC 240015Z AUTO 25018KT 10SM CLR 31/M10 A3010 RMK AO2
KJTC 232355Z AUTO 25016G27KT 10SM CLR 31/M09 A3010 RMK AO2
KJTC 232335Z AUTO 28014G22KT 10SM CLR 31/M09 A3010 RMK AO2
KJTC 232315Z AUTO 26017G22KT 10SM CLR 31/M10 A3011 RMK AO2
KJTC 232255Z AUTO 27016G22KT 10SM CLR 32/M10 A3011 RMK AO2
KJTC 232235Z AUTO 31010G19KT 270V330 10SM CLR 32/M09 A3011 RMK AO2
KJTC 232215Z AUTO 28015G23KT 10SM CLR 33/M10 A3011 RMK AO2
KJTC 232155Z AUTO 26015G25KT 10SM CLR 32/M10 A3011 RMK AO2
KJTC 232135Z AUTO 28019G33KT 230V320 10SM CLR 33/M11 A3011 RMK AO2
KJTC 232115Z AUTO 28012G21KT 10SM CLR 32/M11 A3012 RMK AO2
KJTC 232055Z AUTO 30016G23KT 10SM CLR 33/M11 A3012 RMK AO2
KJTC 232035Z AUTO 32010G22KT 10SM CLR 32/M11 A3013 RMK AO2
KJTC 232015Z AUTO 29010G20KT 10SM CLR 32/M12 A3013 RMK AO2
KJTC 231955Z AUTO 27013G18KT 10SM CLR 32/M12 A3013 RMK AO2
KJTC 231935Z AUTO VRB04G19KT 10SM CLR 32/M12 A3013 RMK AO2
KJTC 231915Z AUTO VRB04G22KT 10SM CLR 31/M11 A3014 RMK AO2
KJTC 231855Z AUTO 23009G19KT 10SM CLR 32/M12 A3014 RMK AO2
KJTC 231835Z AUTO 29008G15KT 10SM CLR 31/M11 A3015 RMK AO2
KJTC 231815Z AUTO 33014G22KT 10SM CLR 31/M11 A3015 RMK AO2
KJTC 231755Z AUTO 32010G19KT 270V340 10SM CLR 30/M11 A3016 RMK AO2
KJTC 231735Z AUTO 34010G15KT 10SM CLR 30/M12 A3016 RMK AO2
KJTC 231715Z AUTO 35007KT 10SM CLR 30/M12 A3016 RMK AO2
KJTC 231655Z AUTO 36007G13KT 10SM CLR 29/M12 A3017 RMK AO2
KJTC 231635Z AUTO 02007KT 10SM CLR 29/M11 A3017 RMK AO2
KJTC 231615Z AUTO 02009KT 350V050 10SM CLR 29/M11 A3017 RMK AO2
KJTC 231555Z AUTO 32009KT 10SM CLR 29/M12 A3017 RMK AO2
KJTC 231535Z AUTO VRB06KT 10SM CLR 28/M13 A3017 RMK AO2
KJTC 231515Z AUTO 31005KT 10SM CLR 28/M13 A3018 RMK AO2
KJTC 231455Z AUTO VRB06KT 10SM CLR 27/M12 A3017 RMK AO2
KJTC 231435Z AUTO 24008KT 10SM CLR 26/M09 A3017 RMK AO2
KJTC 231415Z AUTO 24009KT 10SM CLR 25/M08 A3017 RMK AO2
KJTC 231355Z AUTO 24009KT 10SM CLR 24/M08 A3017 RMK AO2
KJTC 231335Z AUTO 24009KT 10SM CLR 23/M08 A3017 RMK AO2
KJTC 231315Z AUTO 25007KT 10SM CLR 21/M08 A3017 RMK AO2
KJTC 231255Z AUTO 22006KT 10SM CLR 20/M08 A3017 RMK AO2
KJTC 231235Z AUTO 21003KT 10SM CLR 20/M08 A3016 RMK AO2
KJTC 231215Z AUTO 12004KT 10SM CLR 17/M07 A3016 RMK AO2
KJTC 231155Z AUTO 25006G12KT 10SM CLR 18/M07 A3015 RMK AO2
KJTC 231135Z AUTO 24010KT 10SM CLR 18/M07 A3015 RMK AO2
KJTC 231115Z AUTO 24011KT 10SM CLR 18/M07 A3015 RMK AO2
KJTC 231055Z AUTO 25009KT 10SM CLR 19/M07 A3015 RMK AO2
KJTC 231035Z AUTO 24010KT 10SM CLR 19/M08 A3014 RMK AO2
KJTC 231015Z AUTO 25009KT 10SM CLR 19/M07 A3014 RMK AO2
KJTC 230955Z AUTO 25007KT 10SM CLR 20/M07 A3014 RMK AO2
KJTC 230935Z AUTO 24013KT 10SM CLR 20/M07 A3014 RMK AO2
KJTC 230915Z AUTO 25011G17KT 10SM CLR 21/M07 A3013 RMK AO2
KJTC 230855Z AUTO 23014KT 10SM CLR 21/M07 A3013 RMK AO2
KJTC 230835Z AUTO 24016KT 10SM CLR 21/M07 A3013 RMK AO2
KJTC 230815Z AUTO 23014G21KT 10SM CLR 21/M07 A3013 RMK AO2
KJTC 230755Z AUTO 24015G21KT 10SM CLR 21/M07 A3013 RMK AO2
KJTC 230735Z AUTO 24017KT 10SM CLR 21/M07 A3013 RMK AO2
KJTC 230715Z AUTO 24014G20KT 10SM CLR 21/M07 A3014 RMK AO2
KJTC 230655Z AUTO 23019KT 10SM CLR 22/M07 A3014 RMK AO2
KJTC 230635Z AUTO 23017KT 10SM CLR 22/M07 A3014 RMK AO2
KJTC 230615Z AUTO 24017KT 10SM CLR 22/M07 A3014 RMK AO2
KJTC 230555Z AUTO 24017G23KT 10SM CLR 22/M07 A3014 RMK AO2
KJTC 230535Z AUTO 24019KT 10SM CLR 22/M08 A3014 RMK AO2
KJTC 230515Z AUTO 24017G23KT 10SM CLR 24/M08 A3015 RMK AO2
KJTC 230455Z AUTO 24013G19KT 10SM CLR 23/M08 A3015 RMK AO2
KJTC 230435Z AUTO 24019G26KT 10SM CLR 24/M08 A3014 RMK AO2
KJTC 230415Z AUTO 24017G24KT 10SM CLR 24/M08 A3014 RMK AO2
KJTC 230355Z AUTO 25011G17KT 10SM CLR 23/M09 A3013 RMK AO2
KJTC 230335Z AUTO 24015G20KT 10SM CLR 24/M09 A3012 RMK AO2
KJTC 230315Z AUTO 25016KT 10SM CLR 25/M09 A3012 RMK AO2
KJTC 230255Z AUTO 25015KT 10SM CLR 25/M09 A3011 RMK AO2
KJTC 230235Z AUTO 25012KT 10SM CLR 26/M09 A3010 RMK AO2
KJTC 230215Z AUTO 26015G21KT 10SM CLR 28/M09 A3010 RMK AO2
KJTC 230155Z AUTO 25015KT 10SM CLR 29/M10 A3010 RMK AO2
KJTC 230135Z AUTO 26016KT 10SM CLR 31/M10 A3009 RMK AO2
KJTC 230115Z AUTO 34007G13KT 10SM CLR 31/M13 A3009 RMK AO2
KJTC 230055Z AUTO 30012G20KT 10SM CLR 32/M12 A3010 RMK AO2
KJTC 230035Z AUTO 30010G20KT 10SM CLR 32/M12 A3009 RMK AO2
KJTC 230015Z AUTO 24007G15KT 210V270 10SM CLR 32/M12 A3009 RMK AO2
KJTC 222355Z AUTO 29016KT 10SM CLR 33/M12 A3009 RMK AO2
KJTC 222335Z AUTO 29016G22KT 10SM CLR 33/M13 A3010 RMK AO2
KJTC 222315Z AUTO 31013G21KT 10SM CLR 33/M13 A3011 RMK AO2
KJTC 222255Z AUTO 31015G25KT 10SM CLR 33/M13 A3011 RMK AO2
KJTC 222235Z AUTO 27012G25KT 10SM CLR 33/M14 A3012 RMK AO2
KJTC 222215Z AUTO 27016G29KT 10SM CLR 33/M13 A3013 RMK AO2
KJTC 222155Z AUTO 28013G22KT 10SM CLR 34/M15 A3013 RMK AO2
KJTC 222135Z AUTO 29011G22KT 250V310 10SM CLR 34/M16 A3014 RMK AO2
KJTC 222115Z AUTO 28017G24KT 10SM CLR 34/M16 A3015 RMK AO2
KJTC 222055Z AUTO 32011G16KT 290V350 10SM CLR 33/M15 A3015 RMK AO2
KJTC 222035Z AUTO 25016G22KT 10SM CLR 33/M15 A3016 RMK AO2
KJTC 222015Z AUTO 26013KT 10SM CLR 33/M14 A3016 RMK AO2
KJTC 221955Z AUTO VRB05G19KT 10SM CLR 32/M11 A3017 RMK AO2
KJTC 221935Z AUTO 02010G25KT 340V060 10SM CLR 33/M10 A3017 RMK AO2
KJTC 221915Z AUTO 04010G16KT 10SM CLR 32/M10 A3019 RMK AO2
KJTC 221855Z AUTO VRB03G14KT 10SM CLR 31/M10 A3020 RMK AO2
KJTC 221835Z AUTO 02007G19KT 350V070 10SM CLR 30/M09 A3021 RMK AO2
KJTC 221815Z AUTO 32011G17KT 10SM CLR 30/M09 A3022 RMK AO2
KJTC 221755Z AUTO VRB05G17KT 10SM CLR 30/M08 A3022 RMK AO2
KJTC 221735Z AUTO 05009KT 10SM CLR 29/M07 A3023 RMK AO2
KJTC 221715Z AUTO VRB04G14KT 10SM CLR 29/M07 A3024 RMK AO2
KJTC 221655Z AUTO 00000KT 10SM CLR 29/M07 A3024 RMK AO2
KJTC 221635Z AUTO VRB03G10KT 10SM CLR 28/M07 A3025 RMK AO2
KJTC 221615Z AUTO 31007G15KT 290V350 10SM CLR 28/M07 A3025 RMK AO2
KJTC 221555Z AUTO 35008G15KT 10SM CLR 28/M07 A3026 RMK AO2
KJTC 221535Z AUTO 33008KT 10SM CLR 27/M07 A3026 RMK AO2
KJTC 221515Z AUTO VRB05G10KT 10SM CLR 26/M06 A3026 RMK AO2
KJTC 221455Z AUTO 00000KT 10SM CLR 25/M06 A3027 RMK AO2
KJTC 221435Z AUTO 00000KT 10SM CLR 23/M05 A3027 RMK AO2
KJTC 221415Z AUTO 00000KT 10SM CLR 22/M04 A3027 RMK AO2
KJTC 221355Z AUTO 00000KT 10SM CLR 21/M04 A3026 RMK AO2
KJTC 221335Z AUTO 19003KT 10SM CLR 19/M04 A3026 RMK AO2
KJTC 221315Z AUTO 17003KT 10SM CLR 17/M03 A3026 RMK AO2